sensor_id;sensor_type;location;lat;lon;timestamp;P1;durP1;ratioP1;P2;durP2;ratioP2
32365;SDS011;18837;46.832;16.838;2022-12-07T00:01:47;15.23;;;12.17;;
32365;SDS011;18837;46.832;16.838;2022-12-07T00:04:25;14.17;;;12.03;;
32365;SDS011;18837;46.832;16.838;2022-12-07T00:06:51;15.80;;;13.27;;
32365;SDS011;18837;46.832;16.838;2022-12-07T00:09:17;14.87;;;12.63;;
32365;SDS011;18837;46.832;16.838;2022-12-07T00:11:44;14.10;;;12.50;;
32365;SDS011;18837;46.832;16.838;2022-12-07T00:14:14;14.37;;;12.33;;
32365;SDS011;18837;46.832;16.838;2022-12-07T00:16:41;13.73;;;12.03;;
32365;SDS011;18837;46.832;16.838;2022-12-07T00:19:17;15.17;;;13.37;;
32365;SDS011;18837;46.832;16.838;2022-12-07T00:21:43;14.53;;;11.90;;
32365;SDS011;18837;46.832;16.838;2022-12-07T00:24:09;14.87;;;12.00;;
32365;SDS011;18837;46.832;16.838;2022-12-07T00:26:37;15.83;;;12.43;;
32365;SDS011;18837;46.832;16.838;2022-12-07T00:29:09;13.60;;;12.07;;
32365;SDS011;18837;46.832;16.838;2022-12-07T00:31:41;15.07;;;12.40;;
32365;SDS011;18837;46.832;16.838;2022-12-07T00:39:53;14.73;;;11.67;;
32365;SDS011;18837;46.832;16.838;2022-12-07T00:42:19;13.30;;;11.40;;
32365;SDS011;18837;46.832;16.838;2022-12-07T00:44:45;13.60;;;11.80;;
32365;SDS011;18837;46.832;16.838;2022-12-07T00:47:10;17.03;;;12.07;;
32365;SDS011;18837;46.832;16.838;2022-12-07T00:49:36;14.67;;;11.63;;
32365;SDS011;18837;46.832;16.838;2022-12-07T00:52:02;14.93;;;12.20;;
32365;SDS011;18837;46.832;16.838;2022-12-07T00:54:33;14.23;;;11.80;;
32365;SDS011;18837;46.832;16.838;2022-12-07T00:56:59;15.03;;;12.30;;
32365;SDS011;18837;46.832;16.838;2022-12-07T00:59:24;16.33;;;12.67;;
32365;SDS011;18837;46.832;16.838;2022-12-07T01:01:50;14.63;;;11.93;;
32365;SDS011;18837;46.832;16.838;2022-12-07T01:04:15;16.57;;;12.67;;
32365;SDS011;18837;46.832;16.838;2022-12-07T01:06:41;15.17;;;11.30;;
32365;SDS011;18837;46.832;16.838;2022-12-07T01:09:10;15.60;;;11.87;;
32365;SDS011;18837;46.832;16.838;2022-12-07T01:14:30;13.77;;;11.03;;
32365;SDS011;18837;46.832;16.838;2022-12-07T01:16:56;14.60;;;11.23;;
32365;SDS011;18837;46.832;16.838;2022-12-07T01:19:22;14.30;;;10.80;;
32365;SDS011;18837;46.832;16.838;2022-12-07T01:21:47;13.70;;;10.87;;
32365;SDS011;18837;46.832;16.838;2022-12-07T01:24:13;14.80;;;11.10;;
32365;SDS011;18837;46.832;16.838;2022-12-07T01:26:39;13.40;;;11.10;;
32365;SDS011;18837;46.832;16.838;2022-12-07T01:29:11;13.00;;;9.63;;
32365;SDS011;18837;46.832;16.838;2022-12-07T01:31:36;14.43;;;11.20;;
32365;SDS011;18837;46.832;16.838;2022-12-07T01:34:02;12.33;;;10.00;;
32365;SDS011;18837;46.832;16.838;2022-12-07T01:36:32;12.83;;;10.07;;
32365;SDS011;18837;46.832;16.838;2022-12-07T01:39:01;13.43;;;10.17;;
32365;SDS011;18837;46.832;16.838;2022-12-07T01:41:31;12.43;;;10.13;;
32365;SDS011;18837;46.832;16.838;2022-12-07T01:47:50;11.33;;;9.63;;
32365;SDS011;18837;46.832;16.838;2022-12-07T01:50:20;10.80;;;8.63;;
32365;SDS011;18837;46.832;16.838;2022-12-07T01:52:49;11.93;;;9.23;;
32365;SDS011;18837;46.832;16.838;2022-12-07T01:55:18;13.30;;;9.33;;
32365;SDS011;18837;46.832;16.838;2022-12-07T01:57:45;11.40;;;8.83;;
32365;SDS011;18837;46.832;16.838;2022-12-07T02:00:14;10.47;;;8.50;;
32365;SDS011;18837;46.832;16.838;2022-12-07T02:05:44;10.87;;;8.73;;
32365;SDS011;18837;46.832;16.838;2022-12-07T02:08:13;10.87;;;8.30;;
32365;SDS011;18837;46.832;16.838;2022-12-07T02:10:39;11.53;;;7.77;;
32365;SDS011;18837;46.832;16.838;2022-12-07T02:13:21;10.53;;;8.20;;
32365;SDS011;18837;46.832;16.838;2022-12-07T02:15:59;8.80;;;6.93;;
32365;SDS011;18837;46.832;16.838;2022-12-07T02:30:30;9.97;;;8.00;;
32365;SDS011;18837;46.832;16.838;2022-12-07T02:33:06;10.20;;;7.30;;
32365;SDS011;18837;46.832;16.838;2022-12-07T02:35:41;9.17;;;7.03;;
32365;SDS011;18837;46.832;16.838;2022-12-07T02:40:54;9.13;;;6.93;;
32365;SDS011;18837;46.832;16.838;2022-12-07T02:43:38;7.93;;;6.43;;
32365;SDS011;18837;46.832;16.838;2022-12-07T02:46:24;9.83;;;6.97;;
32365;SDS011;18837;46.832;16.838;2022-12-07T02:48:54;9.00;;;8.07;;
32365;SDS011;18837;46.832;16.838;2022-12-07T02:51:21;8.37;;;6.87;;
32365;SDS011;18837;46.832;16.838;2022-12-07T02:53:56;8.43;;;6.97;;
32365;SDS011;18837;46.832;16.838;2022-12-07T03:02:31;9.30;;;6.63;;
32365;SDS011;18837;46.832;16.838;2022-12-07T03:05:15;7.30;;;6.07;;
32365;SDS011;18837;46.832;16.838;2022-12-07T03:13:38;6.97;;;5.57;;
32365;SDS011;18837;46.832;16.838;2022-12-07T03:16:16;8.53;;;6.47;;
32365;SDS011;18837;46.832;16.838;2022-12-07T03:19:29;8.07;;;6.13;;
32365;SDS011;18837;46.832;16.838;2022-12-07T03:21:58;8.60;;;6.40;;
32365;SDS011;18837;46.832;16.838;2022-12-07T03:24:26;7.53;;;5.60;;
32365;SDS011;18837;46.832;16.838;2022-12-07T03:27:18;7.10;;;5.70;;
32365;SDS011;18837;46.832;16.838;2022-12-07T03:30:17;7.57;;;5.57;;
32365;SDS011;18837;46.832;16.838;2022-12-07T03:33:18;6.57;;;5.63;;
32365;SDS011;18837;46.832;16.838;2022-12-07T03:36:04;7.10;;;5.80;;
32365;SDS011;18837;46.832;16.838;2022-12-07T03:41:22;7.20;;;5.67;;
32365;SDS011;18837;46.832;16.838;2022-12-07T03:43:51;7.93;;;5.70;;
32365;SDS011;18837;46.832;16.838;2022-12-07T03:49:08;8.07;;;6.03;;
32365;SDS011;18837;46.832;16.838;2022-12-07T03:57:01;7.27;;;5.53;;
32365;SDS011;18837;46.832;16.838;2022-12-07T03:59:29;6.80;;;5.37;;
32365;SDS011;18837;46.832;16.838;2022-12-07T04:02:02;8.13;;;5.60;;
32365;SDS011;18837;46.832;16.838;2022-12-07T04:04:33;7.27;;;5.93;;
32365;SDS011;18837;46.832;16.838;2022-12-07T04:07:14;8.23;;;6.03;;
32365;SDS011;18837;46.832;16.838;2022-12-07T04:09:40;6.70;;;5.23;;
32365;SDS011;18837;46.832;16.838;2022-12-07T04:12:05;6.67;;;5.30;;
32365;SDS011;18837;46.832;16.838;2022-12-07T04:14:31;6.23;;;5.07;;
32365;SDS011;18837;46.832;16.838;2022-12-07T04:16:58;7.53;;;5.90;;
32365;SDS011;18837;46.832;16.838;2022-12-07T04:19:28;6.37;;;5.03;;
32365;SDS011;18837;46.832;16.838;2022-12-07T04:22:04;6.23;;;5.40;;
32365;SDS011;18837;46.832;16.838;2022-12-07T04:24:30;7.43;;;5.60;;
32365;SDS011;18837;46.832;16.838;2022-12-07T04:26:57;6.27;;;5.27;;
32365;SDS011;18837;46.832;16.838;2022-12-07T04:29:23;7.60;;;5.57;;
32365;SDS011;18837;46.832;16.838;2022-12-07T04:31:48;6.97;;;5.70;;
32365;SDS011;18837;46.832;16.838;2022-12-07T04:34:15;6.63;;;5.20;;
32365;SDS011;18837;46.832;16.838;2022-12-07T04:36:41;6.87;;;5.40;;
32365;SDS011;18837;46.832;16.838;2022-12-07T04:42:10;6.67;;;5.33;;
32365;SDS011;18837;46.832;16.838;2022-12-07T04:44:37;7.03;;;5.10;;
32365;SDS011;18837;46.832;16.838;2022-12-07T04:47:04;6.37;;;5.10;;
32365;SDS011;18837;46.832;16.838;2022-12-07T04:49:29;6.27;;;5.00;;
32365;SDS011;18837;46.832;16.838;2022-12-07T04:51:55;7.63;;;5.37;;
32365;SDS011;18837;46.832;16.838;2022-12-07T04:54:21;7.50;;;5.07;;
32365;SDS011;18837;46.832;16.838;2022-12-07T04:56:52;6.27;;;4.97;;
32365;SDS011;18837;46.832;16.838;2022-12-07T04:59:17;6.57;;;5.27;;
32365;SDS011;18837;46.832;16.838;2022-12-07T05:01:43;7.97;;;4.97;;
32365;SDS011;18837;46.832;16.838;2022-12-07T05:04:09;6.50;;;5.23;;
32365;SDS011;18837;46.832;16.838;2022-12-07T05:06:35;6.93;;;5.33;;
32365;SDS011;18837;46.832;16.838;2022-12-07T05:09:01;6.57;;;5.03;;
32365;SDS011;18837;46.832;16.838;2022-12-07T05:11:33;7.50;;;5.40;;
32365;SDS011;18837;46.832;16.838;2022-12-07T05:16:55;6.50;;;5.40;;
32365;SDS011;18837;46.832;16.838;2022-12-07T05:19:21;6.43;;;5.10;;
32365;SDS011;18837;46.832;16.838;2022-12-07T05:21:47;6.67;;;5.10;;
32365;SDS011;18837;46.832;16.838;2022-12-07T05:24:13;6.37;;;5.00;;
32365;SDS011;18837;46.832;16.838;2022-12-07T05:26:42;7.43;;;5.17;;
32365;SDS011;18837;46.832;16.838;2022-12-07T05:29:12;6.20;;;4.60;;
32365;SDS011;18837;46.832;16.838;2022-12-07T05:31:45;6.90;;;5.43;;
32365;SDS011;18837;46.832;16.838;2022-12-07T05:34:11;6.80;;;5.53;;
32365;SDS011;18837;46.832;16.838;2022-12-07T05:36:37;7.23;;;5.10;;
32365;SDS011;18837;46.832;16.838;2022-12-07T05:39:03;6.87;;;5.20;;
32365;SDS011;18837;46.832;16.838;2022-12-07T05:41:29;6.70;;;4.97;;
32365;SDS011;18837;46.832;16.838;2022-12-07T05:44:13;7.07;;;5.13;;
32365;SDS011;18837;46.832;16.838;2022-12-07T05:46:58;7.33;;;5.37;;
32365;SDS011;18837;46.832;16.838;2022-12-07T05:49:36;7.40;;;5.73;;
32365;SDS011;18837;46.832;16.838;2022-12-07T05:52:07;7.90;;;5.40;;
32365;SDS011;18837;46.832;16.838;2022-12-07T05:54:33;8.80;;;5.57;;
32365;SDS011;18837;46.832;16.838;2022-12-07T05:56:58;7.90;;;5.57;;
32365;SDS011;18837;46.832;16.838;2022-12-07T05:59:24;8.17;;;5.73;;
32365;SDS011;18837;46.832;16.838;2022-12-07T06:01:59;7.87;;;5.70;;
32365;SDS011;18837;46.832;16.838;2022-12-07T06:04:30;7.77;;;5.50;;
32365;SDS011;18837;46.832;16.838;2022-12-07T06:06:59;7.43;;;5.63;;
32365;SDS011;18837;46.832;16.838;2022-12-07T06:09:26;7.97;;;5.87;;
32365;SDS011;18837;46.832;16.838;2022-12-07T06:11:52;10.97;;;7.67;;
32365;SDS011;18837;46.832;16.838;2022-12-07T06:14:37;10.70;;;7.07;;
32365;SDS011;18837;46.832;16.838;2022-12-07T06:17:03;9.63;;;6.67;;
32365;SDS011;18837;46.832;16.838;2022-12-07T06:19:30;12.17;;;6.93;;
32365;SDS011;18837;46.832;16.838;2022-12-07T06:25:07;10.10;;;7.07;;
32365;SDS011;18837;46.832;16.838;2022-12-07T06:27:34;9.93;;;7.07;;
32365;SDS011;18837;46.832;16.838;2022-12-07T06:30:00;9.43;;;6.80;;
32365;SDS011;18837;46.832;16.838;2022-12-07T06:32:31;10.40;;;7.03;;
32365;SDS011;18837;46.832;16.838;2022-12-07T06:34:57;9.83;;;6.17;;
32365;SDS011;18837;46.832;16.838;2022-12-07T06:37:24;10.73;;;6.77;;
32365;SDS011;18837;46.832;16.838;2022-12-07T06:39:50;8.57;;;5.83;;
32365;SDS011;18837;46.832;16.838;2022-12-07T06:42:17;11.07;;;6.60;;
32365;SDS011;18837;46.832;16.838;2022-12-07T06:44:42;11.57;;;7.13;;
32365;SDS011;18837;46.832;16.838;2022-12-07T06:47:08;10.23;;;7.23;;
32365;SDS011;18837;46.832;16.838;2022-12-07T06:49:34;10.33;;;6.93;;
32365;SDS011;18837;46.832;16.838;2022-12-07T06:52:00;9.30;;;6.37;;
32365;SDS011;18837;46.832;16.838;2022-12-07T06:54:26;11.60;;;7.23;;
32365;SDS011;18837;46.832;16.838;2022-12-07T06:57:04;10.00;;;7.00;;
32365;SDS011;18837;46.832;16.838;2022-12-07T06:59:42;10.13;;;6.60;;
32365;SDS011;18837;46.832;16.838;2022-12-07T07:02:08;9.37;;;6.30;;
32365;SDS011;18837;46.832;16.838;2022-12-07T07:04:35;10.63;;;6.40;;
32365;SDS011;18837;46.832;16.838;2022-12-07T07:07:01;10.57;;;6.90;;
32365;SDS011;18837;46.832;16.838;2022-12-07T07:09:26;8.23;;;6.23;;
32365;SDS011;18837;46.832;16.838;2022-12-07T07:11:52;8.10;;;6.23;;
32365;SDS011;18837;46.832;16.838;2022-12-07T07:14:36;9.80;;;6.40;;
32365;SDS011;18837;46.832;16.838;2022-12-07T07:17:02;8.47;;;6.20;;
32365;SDS011;18837;46.832;16.838;2022-12-07T07:19:28;8.63;;;6.00;;
32365;SDS011;18837;46.832;16.838;2022-12-07T07:21:53;9.27;;;6.70;;
32365;SDS011;18837;46.832;16.838;2022-12-07T07:24:20;8.57;;;6.23;;
32365;SDS011;18837;46.832;16.838;2022-12-07T07:26:45;8.47;;;5.93;;
32365;SDS011;18837;46.832;16.838;2022-12-07T07:29:11;10.03;;;6.70;;
32365;SDS011;18837;46.832;16.838;2022-12-07T07:31:40;8.43;;;6.13;;
32365;SDS011;18837;46.832;16.838;2022-12-07T07:34:10;8.77;;;6.07;;
32365;SDS011;18837;46.832;16.838;2022-12-07T07:36:36;9.57;;;6.27;;
32365;SDS011;18837;46.832;16.838;2022-12-07T07:39:02;9.97;;;6.33;;
32365;SDS011;18837;46.832;16.838;2022-12-07T07:41:27;9.37;;;7.50;;
32365;SDS011;18837;46.832;16.838;2022-12-07T07:43:53;9.00;;;6.17;;
32365;SDS011;18837;46.832;16.838;2022-12-07T07:46:19;7.70;;;5.70;;
32365;SDS011;18837;46.832;16.838;2022-12-07T07:48:44;9.93;;;6.80;;
32365;SDS011;18837;46.832;16.838;2022-12-07T07:51:10;7.80;;;6.03;;
32365;SDS011;18837;46.832;16.838;2022-12-07T07:53:36;9.17;;;6.53;;
32365;SDS011;18837;46.832;16.838;2022-12-07T07:56:02;8.70;;;6.57;;
32365;SDS011;18837;46.832;16.838;2022-12-07T07:58:28;9.47;;;6.20;;
32365;SDS011;18837;46.832;16.838;2022-12-07T08:00:54;7.53;;;6.03;;
32365;SDS011;18837;46.832;16.838;2022-12-07T08:03:20;9.60;;;6.60;;
32365;SDS011;18837;46.832;16.838;2022-12-07T08:05:51;8.53;;;6.50;;
32365;SDS011;18837;46.832;16.838;2022-12-07T08:08:17;9.10;;;6.50;;
32365;SDS011;18837;46.832;16.838;2022-12-07T08:10:42;10.00;;;6.83;;
32365;SDS011;18837;46.832;16.838;2022-12-07T08:13:08;9.97;;;7.03;;
32365;SDS011;18837;46.832;16.838;2022-12-07T08:15:38;9.43;;;6.50;;
32365;SDS011;18837;46.832;16.838;2022-12-07T08:18:08;8.47;;;6.23;;
32365;SDS011;18837;46.832;16.838;2022-12-07T08:20:35;12.10;;;7.67;;
32365;SDS011;18837;46.832;16.838;2022-12-07T08:23:21;16.00;;;11.27;;
32365;SDS011;18837;46.832;16.838;2022-12-07T08:25:47;13.60;;;9.50;;
32365;SDS011;18837;46.832;16.838;2022-12-07T08:28:12;13.03;;;8.80;;
32365;SDS011;18837;46.832;16.838;2022-12-07T08:30:38;14.73;;;9.00;;
32365;SDS011;18837;46.832;16.838;2022-12-07T08:33:04;16.10;;;10.30;;
32365;SDS011;18837;46.832;16.838;2022-12-07T08:35:29;15.20;;;9.37;;
32365;SDS011;18837;46.832;16.838;2022-12-07T08:37:57;12.03;;;8.73;;
32365;SDS011;18837;46.832;16.838;2022-12-07T08:40:23;11.00;;;8.27;;
32365;SDS011;18837;46.832;16.838;2022-12-07T08:42:49;13.70;;;8.77;;
32365;SDS011;18837;46.832;16.838;2022-12-07T08:45:16;12.63;;;8.60;;
32365;SDS011;18837;46.832;16.838;2022-12-07T08:48:02;11.13;;;8.27;;
32365;SDS011;18837;46.832;16.838;2022-12-07T08:50:32;15.27;;;9.23;;
32365;SDS011;18837;46.832;16.838;2022-12-07T08:53:00;14.00;;;8.67;;
32365;SDS011;18837;46.832;16.838;2022-12-07T08:58:28;12.33;;;8.73;;
32365;SDS011;18837;46.832;16.838;2022-12-07T09:00:54;11.20;;;7.87;;
32365;SDS011;18837;46.832;16.838;2022-12-07T09:03:20;14.20;;;8.37;;
32365;SDS011;18837;46.832;16.838;2022-12-07T09:05:45;12.73;;;8.90;;
32365;SDS011;18837;46.832;16.838;2022-12-07T09:08:11;13.57;;;8.40;;
32365;SDS011;18837;46.832;16.838;2022-12-07T09:10:37;11.50;;;8.13;;
32365;SDS011;18837;46.832;16.838;2022-12-07T09:13:08;13.10;;;8.93;;
32365;SDS011;18837;46.832;16.838;2022-12-07T09:15:33;12.93;;;8.27;;
32365;SDS011;18837;46.832;16.838;2022-12-07T09:17:59;13.83;;;8.57;;
32365;SDS011;18837;46.832;16.838;2022-12-07T09:20:25;13.10;;;8.17;;
32365;SDS011;18837;46.832;16.838;2022-12-07T09:22:50;14.53;;;8.70;;
32365;SDS011;18837;46.832;16.838;2022-12-07T09:25:16;14.10;;;9.23;;
32365;SDS011;18837;46.832;16.838;2022-12-07T09:27:55;12.17;;;8.23;;
32365;SDS011;18837;46.832;16.838;2022-12-07T09:33:40;10.73;;;8.03;;
32365;SDS011;18837;46.832;16.838;2022-12-07T09:36:06;11.87;;;8.30;;
32365;SDS011;18837;46.832;16.838;2022-12-07T09:38:32;10.20;;;7.73;;
32365;SDS011;18837;46.832;16.838;2022-12-07T09:40:58;11.70;;;8.07;;
32365;SDS011;18837;46.832;16.838;2022-12-07T09:43:30;11.00;;;7.57;;
32365;SDS011;18837;46.832;16.838;2022-12-07T09:45:56;11.07;;;7.93;;
32365;SDS011;18837;46.832;16.838;2022-12-07T09:50:54;10.87;;;7.00;;
32365;SDS011;18837;46.832;16.838;2022-12-07T09:53:27;10.60;;;7.67;;
32365;SDS011;18837;46.832;16.838;2022-12-07T09:56:01;10.03;;;7.10;;
32365;SDS011;18837;46.832;16.838;2022-12-07T09:58:28;8.73;;;7.80;;
32365;SDS011;18837;46.832;16.838;2022-12-07T10:00:57;9.43;;;6.97;;
32365;SDS011;18837;46.832;16.838;2022-12-07T10:03:27;9.23;;;6.77;;
32365;SDS011;18837;46.832;16.838;2022-12-07T10:05:54;10.07;;;7.07;;
32365;SDS011;18837;46.832;16.838;2022-12-07T10:08:20;8.60;;;5.90;;
32365;SDS011;18837;46.832;16.838;2022-12-07T10:10:48;7.77;;;6.10;;
32365;SDS011;18837;46.832;16.838;2022-12-07T10:13:33;6.93;;;5.93;;
32365;SDS011;18837;46.832;16.838;2022-12-07T10:16:01;10.17;;;6.57;;
32365;SDS011;18837;46.832;16.838;2022-12-07T10:18:38;8.73;;;6.30;;
32365;SDS011;18837;46.832;16.838;2022-12-07T10:21:22;7.60;;;5.77;;
32365;SDS011;18837;46.832;16.838;2022-12-07T10:24:00;7.43;;;6.13;;
32365;SDS011;18837;46.832;16.838;2022-12-07T10:26:36;8.67;;;6.00;;
32365;SDS011;18837;46.832;16.838;2022-12-07T10:34:45;8.40;;;5.97;;
32365;SDS011;18837;46.832;16.838;2022-12-07T10:37:15;7.17;;;5.73;;
32365;SDS011;18837;46.832;16.838;2022-12-07T10:39:46;8.87;;;6.53;;
32365;SDS011;18837;46.832;16.838;2022-12-07T10:42:18;6.90;;;6.00;;
32365;SDS011;18837;46.832;16.838;2022-12-07T10:55:56;8.33;;;6.00;;
32365;SDS011;18837;46.832;16.838;2022-12-07T11:01:18;8.60;;;6.10;;
32365;SDS011;18837;46.832;16.838;2022-12-07T11:04:06;7.60;;;6.17;;
32365;SDS011;18837;46.832;16.838;2022-12-07T11:06:58;8.37;;;6.87;;
32365;SDS011;18837;46.832;16.838;2022-12-07T11:12:52;7.93;;;6.57;;
32365;SDS011;18837;46.832;16.838;2022-12-07T11:24:13;7.87;;;6.30;;
32365;SDS011;18837;46.832;16.838;2022-12-07T11:29:47;7.37;;;5.90;;
32365;SDS011;18837;46.832;16.838;2022-12-07T11:35:11;7.93;;;6.23;;
32365;SDS011;18837;46.832;16.838;2022-12-07T11:37:49;8.73;;;6.53;;
32365;SDS011;18837;46.832;16.838;2022-12-07T11:40:25;9.33;;;6.40;;
32365;SDS011;18837;46.832;16.838;2022-12-07T11:45:35;9.03;;;7.23;;
32365;SDS011;18837;46.832;16.838;2022-12-07T11:48:11;9.33;;;7.07;;
32365;SDS011;18837;46.832;16.838;2022-12-07T11:50:51;10.43;;;7.93;;
32365;SDS011;18837;46.832;16.838;2022-12-07T11:53:20;10.93;;;8.20;;
32365;SDS011;18837;46.832;16.838;2022-12-07T12:01:29;10.10;;;7.77;;
32365;SDS011;18837;46.832;16.838;2022-12-07T12:06:38;8.03;;;6.60;;
32365;SDS011;18837;46.832;16.838;2022-12-07T12:09:15;9.33;;;7.30;;
32365;SDS011;18837;46.832;16.838;2022-12-07T12:12:06;9.30;;;6.90;;
32365;SDS011;18837;46.832;16.838;2022-12-07T12:20:27;9.57;;;7.57;;
32365;SDS011;18837;46.832;16.838;2022-12-07T12:23:19;9.37;;;7.60;;
32365;SDS011;18837;46.832;16.838;2022-12-07T12:26:07;9.10;;;7.27;;
32365;SDS011;18837;46.832;16.838;2022-12-07T12:28:40;8.37;;;7.27;;
32365;SDS011;18837;46.832;16.838;2022-12-07T12:33:48;10.23;;;7.33;;
32365;SDS011;18837;46.832;16.838;2022-12-07T12:51:42;9.13;;;7.40;;
32365;SDS011;18837;46.832;16.838;2022-12-07T12:54:57;9.17;;;7.47;;
32365;SDS011;18837;46.832;16.838;2022-12-07T12:57:20;9.47;;;7.20;;
32365;SDS011;18837;46.832;16.838;2022-12-07T13:05:26;9.70;;;7.87;;
32365;SDS011;18837;46.832;16.838;2022-12-07T13:10:44;8.97;;;6.90;;
32365;SDS011;18837;46.832;16.838;2022-12-07T13:23:29;10.57;;;8.10;;
32365;SDS011;18837;46.832;16.838;2022-12-07T13:34:55;9.73;;;7.87;;
32365;SDS011;18837;46.832;16.838;2022-12-07T13:37:25;10.47;;;7.83;;
32365;SDS011;18837;46.832;16.838;2022-12-07T13:44:59;9.93;;;8.10;;
32365;SDS011;18837;46.832;16.838;2022-12-07T13:47:49;10.60;;;8.47;;
32365;SDS011;18837;46.832;16.838;2022-12-07T13:50:25;10.77;;;8.37;;
32365;SDS011;18837;46.832;16.838;2022-12-07T13:52:56;10.83;;;8.53;;
32365;SDS011;18837;46.832;16.838;2022-12-07T13:55:24;10.03;;;8.13;;
32365;SDS011;18837;46.832;16.838;2022-12-07T13:57:52;9.33;;;7.97;;
32365;SDS011;18837;46.832;16.838;2022-12-07T14:00:19;8.47;;;7.53;;
32365;SDS011;18837;46.832;16.838;2022-12-07T14:02:57;11.33;;;8.83;;
32365;SDS011;18837;46.832;16.838;2022-12-07T14:05:28;11.10;;;8.60;;
32365;SDS011;18837;46.832;16.838;2022-12-07T14:08:21;12.00;;;9.20;;
32365;SDS011;18837;46.832;16.838;2022-12-07T14:13:33;10.77;;;9.00;;
32365;SDS011;18837;46.832;16.838;2022-12-07T14:16:18;10.27;;;8.03;;
32365;SDS011;18837;46.832;16.838;2022-12-07T14:18:56;11.90;;;9.50;;
32365;SDS011;18837;46.832;16.838;2022-12-07T14:21:25;10.57;;;9.07;;
32365;SDS011;18837;46.832;16.838;2022-12-07T14:24:12;10.50;;;8.43;;
32365;SDS011;18837;46.832;16.838;2022-12-07T14:26:45;9.87;;;8.77;;
32365;SDS011;18837;46.832;16.838;2022-12-07T14:31:51;11.50;;;9.20;;
32365;SDS011;18837;46.832;16.838;2022-12-07T14:34:21;13.37;;;10.30;;
32365;SDS011;18837;46.832;16.838;2022-12-07T14:36:48;11.00;;;9.50;;
32365;SDS011;18837;46.832;16.838;2022-12-07T14:39:14;11.50;;;9.63;;
32365;SDS011;18837;46.832;16.838;2022-12-07T14:41:45;12.77;;;10.03;;
32365;SDS011;18837;46.832;16.838;2022-12-07T14:44:21;11.83;;;9.80;;
32365;SDS011;18837;46.832;16.838;2022-12-07T14:46:48;11.10;;;9.40;;
32365;SDS011;18837;46.832;16.838;2022-12-07T14:49:15;12.10;;;10.00;;
32365;SDS011;18837;46.832;16.838;2022-12-07T14:51:41;11.87;;;9.33;;
32365;SDS011;18837;46.832;16.838;2022-12-07T14:54:17;12.97;;;10.30;;
32365;SDS011;18837;46.832;16.838;2022-12-07T14:56:44;12.13;;;9.67;;
32365;SDS011;18837;46.832;16.838;2022-12-07T14:59:12;13.50;;;10.73;;
32365;SDS011;18837;46.832;16.838;2022-12-07T15:01:38;12.73;;;10.23;;
32365;SDS011;18837;46.832;16.838;2022-12-07T15:04:04;13.27;;;9.80;;
32365;SDS011;18837;46.832;16.838;2022-12-07T15:06:30;12.47;;;10.37;;
32365;SDS011;18837;46.832;16.838;2022-12-07T15:08:56;13.13;;;10.60;;
32365;SDS011;18837;46.832;16.838;2022-12-07T15:11:21;14.40;;;10.93;;
32365;SDS011;18837;46.832;16.838;2022-12-07T15:13:59;12.73;;;10.40;;
32365;SDS011;18837;46.832;16.838;2022-12-07T15:16:41;14.07;;;10.00;;
32365;SDS011;18837;46.832;16.838;2022-12-07T15:19:19;12.67;;;9.97;;
32365;SDS011;18837;46.832;16.838;2022-12-07T15:21:50;15.20;;;11.40;;
32365;SDS011;18837;46.832;16.838;2022-12-07T15:24:16;14.07;;;11.07;;
32365;SDS011;18837;46.832;16.838;2022-12-07T15:26:42;14.73;;;11.43;;
32365;SDS011;18837;46.832;16.838;2022-12-07T15:29:10;13.70;;;10.80;;
32365;SDS011;18837;46.832;16.838;2022-12-07T15:31:37;13.77;;;11.53;;
32365;SDS011;18837;46.832;16.838;2022-12-07T15:34:23;14.83;;;11.20;;
32365;SDS011;18837;46.832;16.838;2022-12-07T15:36:53;15.87;;;12.23;;
32365;SDS011;18837;46.832;16.838;2022-12-07T15:39:19;14.30;;;11.80;;
32365;SDS011;18837;46.832;16.838;2022-12-07T15:41:46;15.30;;;11.97;;
32365;SDS011;18837;46.832;16.838;2022-12-07T15:44:13;15.37;;;11.60;;
32365;SDS011;18837;46.832;16.838;2022-12-07T15:46:57;14.93;;;11.57;;
32365;SDS011;18837;46.832;16.838;2022-12-07T15:49:25;16.83;;;12.67;;
32365;SDS011;18837;46.832;16.838;2022-12-07T15:51:52;14.33;;;11.17;;
32365;SDS011;18837;46.832;16.838;2022-12-07T15:54:21;15.17;;;11.47;;
32365;SDS011;18837;46.832;16.838;2022-12-07T15:56:48;14.07;;;11.03;;
32365;SDS011;18837;46.832;16.838;2022-12-07T15:59:14;14.27;;;11.70;;
32365;SDS011;18837;46.832;16.838;2022-12-07T16:01:41;14.37;;;11.57;;
32365;SDS011;18837;46.832;16.838;2022-12-07T16:04:07;14.93;;;12.37;;
32365;SDS011;18837;46.832;16.838;2022-12-07T16:06:32;15.23;;;11.90;;
32365;SDS011;18837;46.832;16.838;2022-12-07T16:08:58;15.67;;;12.17;;
32365;SDS011;18837;46.832;16.838;2022-12-07T16:11:24;16.70;;;12.00;;
32365;SDS011;18837;46.832;16.838;2022-12-07T16:13:50;16.13;;;12.60;;
32365;SDS011;18837;46.832;16.838;2022-12-07T16:16:17;18.27;;;14.30;;
32365;SDS011;18837;46.832;16.838;2022-12-07T16:18:45;18.83;;;13.70;;
32365;SDS011;18837;46.832;16.838;2022-12-07T16:21:14;18.23;;;14.30;;
32365;SDS011;18837;46.832;16.838;2022-12-07T16:23:41;18.27;;;14.20;;
32365;SDS011;18837;46.832;16.838;2022-12-07T16:26:11;19.60;;;14.30;;
32365;SDS011;18837;46.832;16.838;2022-12-07T16:28:39;22.27;;;15.57;;
32365;SDS011;18837;46.832;16.838;2022-12-07T16:31:08;19.07;;;15.07;;
32365;SDS011;18837;46.832;16.838;2022-12-07T16:33:39;18.87;;;14.77;;
32365;SDS011;18837;46.832;16.838;2022-12-07T16:36:06;20.53;;;15.63;;
32365;SDS011;18837;46.832;16.838;2022-12-07T16:38:34;18.67;;;15.10;;
32365;SDS011;18837;46.832;16.838;2022-12-07T16:41:01;19.17;;;14.90;;
32365;SDS011;18837;46.832;16.838;2022-12-07T16:43:26;27.30;;;19.70;;
32365;SDS011;18837;46.832;16.838;2022-12-07T16:45:52;28.33;;;20.07;;
32365;SDS011;18837;46.832;16.838;2022-12-07T16:48:18;25.30;;;19.37;;
32365;SDS011;18837;46.832;16.838;2022-12-07T16:50:46;27.07;;;19.53;;
32365;SDS011;18837;46.832;16.838;2022-12-07T16:53:13;23.93;;;18.57;;
32365;SDS011;18837;46.832;16.838;2022-12-07T16:55:41;27.50;;;18.67;;
32365;SDS011;18837;46.832;16.838;2022-12-07T16:58:15;27.17;;;18.63;;
32365;SDS011;18837;46.832;16.838;2022-12-07T17:00:47;26.87;;;19.87;;
32365;SDS011;18837;46.832;16.838;2022-12-07T17:03:13;28.17;;;19.10;;
32365;SDS011;18837;46.832;16.838;2022-12-07T17:05:42;25.97;;;18.53;;
32365;SDS011;18837;46.832;16.838;2022-12-07T17:08:09;24.33;;;18.13;;
32365;SDS011;18837;46.832;16.838;2022-12-07T17:10:39;24.47;;;18.23;;
32365;SDS011;18837;46.832;16.838;2022-12-07T17:13:07;26.50;;;19.53;;
32365;SDS011;18837;46.832;16.838;2022-12-07T17:16:02;24.70;;;17.53;;
32365;SDS011;18837;46.832;16.838;2022-12-07T17:18:34;24.77;;;18.13;;
32365;SDS011;18837;46.832;16.838;2022-12-07T17:21:06;23.37;;;17.70;;
32365;SDS011;18837;46.832;16.838;2022-12-07T17:23:35;30.63;;;19.47;;
32365;SDS011;18837;46.832;16.838;2022-12-07T17:26:09;25.37;;;18.90;;
32365;SDS011;18837;46.832;16.838;2022-12-07T17:28:38;26.50;;;18.77;;
32365;SDS011;18837;46.832;16.838;2022-12-07T17:31:06;27.73;;;18.73;;
32365;SDS011;18837;46.832;16.838;2022-12-07T17:33:34;29.03;;;18.53;;
32365;SDS011;18837;46.832;16.838;2022-12-07T17:36:10;24.40;;;17.33;;
32365;SDS011;18837;46.832;16.838;2022-12-07T17:38:41;23.17;;;17.20;;
32365;SDS011;18837;46.832;16.838;2022-12-07T17:41:12;23.03;;;17.10;;
32365;SDS011;18837;46.832;16.838;2022-12-07T17:43:58;24.07;;;17.53;;